Time;durP1;ratioP1;P1;durP2;ratioP2;P2;SDS_P1;SDS_P2;PMS_P1;PMS_P2;Temp;Humidity;BMP_temperature;BMP_pressure;BME280_temperature;BME280_humidity;BME280_pressure;Samples;Min_cycle;Max_cycle;Signal;HPM_P1;HPM_P2
2022/03/20 00:00:33;;;;;;;;;47.50;38.75;;;;;6.90;26.19;101291.09;6312495;27;96701;-67
2022/03/20 00:03:38;;;;;;;;;49.40;40.00;;;;;6.88;26.16;101290.41;6311346;27;97022;-67
2022/03/20 00:06:41;;;;;;;;;49.67;39.00;;;;;6.89;26.36;101285.88;6276560;27;99619;-67
2022/03/20 00:09:46;;;;;;;;;50.20;38.20;;;;;6.88;26.34;101281.50;6293405;27;97280;-66
2022/03/20 00:12:49;;;;;;;;;52.20;41.20;;;;;6.86;26.37;101283.47;6276905;27;97445;-66
2022/03/20 00:15:54;;;;;;;;;49.50;40.25;;;;;6.74;26.61;101274.72;6312470;27;96701;-67
2022/03/20 00:18:59;;;;;;;;;53.40;40.60;;;;;6.73;26.71;101283.75;6312288;27;98049;-67
2022/03/20 00:22:02;;;;;;;;;51.40;40.00;;;;;6.76;26.52;101286.13;6292912;27;98039;-67
2022/03/20 00:25:06;;;;;;;;;51.00;40.75;;;;;6.68;26.48;101285.13;6293360;27;98019;-66
2022/03/20 00:28:10;;;;;;;;;49.00;38.67;;;;;6.46;26.93;101268.28;6294210;27;97053;-65
2022/03/20 00:31:14;;;;;;;;;50.40;40.40;;;;;6.51;26.96;101282.13;6316880;27;96727;-66
2022/03/20 00:34:19;;;;;;;;;52.50;41.00;;;;;6.49;26.86;101283.25;6298595;27;96594;-67
2022/03/20 00:37:22;;;;;;;;;51.00;41.00;;;;;6.37;27.08;101282.50;6297777;27;96893;-67
2022/03/20 00:40:25;;;;;;;;;52.00;41.00;;;;;6.42;27.02;101284.78;6316171;27;96429;-67
2022/03/20 00:43:28;;;;;;;;;50.20;40.60;;;;;6.41;27.19;101286.63;6298407;27;97497;-67
2022/03/20 00:46:32;;;;;;;;;51.40;40.00;;;;;6.37;27.28;101277.16;6316958;27;96827;-65
2022/03/20 00:49:37;;;;;;;;;48.50;38.25;;;;;6.46;27.08;101283.53;6316900;27;96934;-66
2022/03/20 00:52:40;;;;;;;;;51.60;40.00;;;;;6.48;27.17;101278.88;6315319;27;97353;-65
2022/03/20 00:55:43;;;;;;;;;47.00;39.00;;;;;6.41;27.22;101275.88;6308039;27;97211;-66
2022/03/20 00:58:47;;;;;;;;;52.40;41.00;;;;;6.29;27.53;101282.34;6273294;27;99491;-67
2022/03/20 01:01:50;;;;;;;;;52.00;40.00;;;;;6.21;27.60;101292.03;6297855;27;98379;-65
2022/03/20 01:04:56;;;;;;;;;49.00;39.00;;;;;6.19;27.66;101284.16;6316448;27;97421;-65
2022/03/20 01:08:00;;;;;;;;;52.40;41.80;;;;;6.17;27.64;101278.06;6296702;27;100426;-65
2022/03/20 01:11:09;;;;;;;;;50.00;41.00;;;;;6.09;27.88;101280.59;6316293;27;96672;-66
2022/03/20 01:14:13;;;;;;;;;49.40;40.40;;;;;6.18;27.68;101274.41;6296494;27;98833;-67
2022/03/20 01:17:16;;;;;;;;;54.40;42.00;;;;;6.24;27.88;101268.53;6314172;27;97430;-65
2022/03/20 01:20:21;;;;;;;;;53.40;40.00;;;;;6.20;27.42;101266.25;6287463;27;97047;-66
2022/03/20 01:23:24;;;;;;;;;52.00;39.40;;;;;6.18;28.05;101261.03;6276024;27;97545;-67
2022/03/20 01:26:29;;;;;;;;;50.67;41.67;;;;;6.16;27.98;101265.66;6290288;27;96742;-65
2022/03/20 01:29:34;;;;;;;;;49.60;39.60;;;;;6.16;27.68;101275.56;6295341;27;96614;-67
2022/03/20 01:32:37;;;;;;;;;52.00;41.20;;;;;6.08;27.91;101274.38;6296428;27;96674;-67
2022/03/20 01:35:42;;;;;;;;;53.00;41.00;;;;;6.03;27.94;101259.69;6315550;27;97495;-66
2022/03/20 01:38:45;;;;;;;;;49.00;39.00;;;;;6.04;27.97;101274.78;6295245;27;98368;-65
2022/03/20 01:41:48;;;;;;;;;52.00;41.00;;;;;5.96;28.03;101272.75;6308820;27;96375;-65
2022/03/20 01:44:52;;;;;;;;;50.00;41.00;;;;;5.90;28.38;101269.78;6296447;27;98448;-68
2022/03/20 01:47:55;;;;;;;;;53.50;42.00;;;;;5.84;28.27;101270.28;6296657;27;97642;-64
2022/03/20 01:51:00;;;;;;;;;49.00;40.00;;;;;5.68;28.04;101239.50;6315446;27;96785;-67
2022/03/20 01:54:03;;;;;;;;;52.00;40.67;;;;;5.88;28.13;101259.19;6315397;27;96545;-66
2022/03/20 01:57:09;;;;;;;;;49.80;40.40;;;;;5.82;28.23;101262.38;6290086;27;97487;-66
2022/03/20 02:00:16;;;;;;;;;52.40;40.00;;;;;5.84;28.30;101259.56;6301881;27;97399;-67
2022/03/20 02:03:20;;;;;;;;;53.60;40.00;;;;;5.80;28.48;101259.00;6315231;27;97047;-66
2022/03/20 02:06:26;;;;;;;;;52.25;40.00;;;;;5.74;28.32;101264.03;6315282;27;96473;-68
2022/03/20 02:09:30;;;;;;;;;51.50;41.25;;;;;5.68;28.72;101265.41;6295847;27;97748;-66
2022/03/20 02:12:36;;;;;;;;;50.60;41.60;;;;;5.68;28.51;101274.28;6314562;27;98069;-66
2022/03/20 02:15:40;;;;;;;;;50.00;39.00;;;;;5.63;28.60;101273.81;6315200;27;96986;-66
2022/03/20 02:18:44;;;;;;;;;52.40;40.20;;;;;5.49;28.72;101252.75;6315020;27;96707;-66
2022/03/20 02:21:50;;;;;;;;;51.80;41.00;;;;;5.65;28.62;101271.03;6294924;27;97479;-68
2022/03/20 02:24:53;;;;;;;;;51.25;39.25;;;;;5.73;28.54;101265.84;6314397;27;97186;-69
2022/03/20 02:27:57;;;;;;;;;49.00;39.75;;;;;5.78;28.69;101255.59;6295428;27;98473;-66
2022/03/20 02:31:00;;;;;;;;;49.50;39.00;;;;;5.88;28.43;101259.19;6295230;27;98722;-66
2022/03/20 02:34:03;;;;;;;;;49.00;39.00;;;;;5.86;28.24;101260.31;6314683;27;96486;-68
2022/03/20 02:37:09;;;;;;;;;47.00;38.80;;;;;5.90;28.52;101256.41;6314540;27;96930;-66
2022/03/20 02:40:13;;;;;;;;;50.00;40.00;;;;;5.88;28.33;101255.69;6313114;27;96841;-67
2022/03/20 02:43:17;;;;;;;;;53.40;41.00;;;;;5.88;28.55;101264.56;6295639;27;96516;-67
2022/03/20 02:46:20;;;;;;;;;51.00;39.50;;;;;5.86;28.66;101261.16;6295065;27;97496;-66
2022/03/20 02:49:24;;;;;;;;;50.00;39.75;;;;;5.90;28.32;101267.13;6312598;27;96548;-68
2022/03/20 02:52:31;;;;;;;;;48.20;38.60;;;;;5.78;28.68;101262.78;6311789;27;97767;-66
2022/03/20 02:55:36;;;;;;;;;46.40;39.40;;;;;5.62;28.59;101226.63;6312797;27;96641;-66
2022/03/20 02:58:39;;;;;;;;;48.00;39.00;;;;;5.91;28.50;101263.47;6311376;27;97518;-66
2022/03/20 03:01:42;;;;;;;;;50.00;40.80;;;;;5.85;28.62;101267.47;6312550;27;97546;-67
2022/03/20 03:04:46;;;;;;;;;48.00;38.80;;;;;5.68;28.78;101270.75;6313589;27;97518;-67
2022/03/20 03:11:12;;;;;;;;;50.80;40.00;;;;;5.67;29.16;101267.22;6314194;27;96627;-68
2022/03/20 03:17:35;;;;;;;;;50.00;39.80;;;;;5.55;29.18;101260.28;6263951;27;97746;-67
2022/03/20 03:20:39;;;;;;;;;49.40;39.80;;;;;5.51;29.49;101261.53;6294642;27;97706;-68
2022/03/20 03:23:46;;;;;;;;;52.00;40.00;;;;;5.50;29.43;101254.47;6278000;27;96893;-65
2022/03/20 03:26:49;;;;;;;;;49.00;40.00;;;;;5.42;29.60;101262.31;6313925;27;97536;-66
2022/03/20 03:29:52;;;;;;;;;50.75;39.75;;;;;5.45;29.60;101269.22;6294074;27;97799;-67
2022/03/20 03:32:56;;;;;;;;;50.20;38.80;;;;;5.37;29.83;101256.50;6313038;27;97528;-66
2022/03/20 03:36:01;;;;;;;;;54.40;41.20;;;;;5.42;29.40;101269.50;6294275;27;96939;-66
2022/03/20 03:39:07;;;;;;;;;48.80;39.00;;;;;5.43;29.38;101271.16;6312680;27;97392;-66
2022/03/20 03:42:10;;;;;;;;;52.60;41.00;;;;;5.39;29.78;101270.56;6313207;27;96621;-67
2022/03/20 03:45:14;;;;;;;;;54.00;41.60;;;;;5.36;29.63;101268.19;6277399;27;99790;-68
2022/03/20 03:48:18;;;;;;;;;50.00;38.80;;;;;5.21;30.14;101266.78;6280868;27;96931;-68
2022/03/20 03:51:22;;;;;;;;;49.00;40.00;;;;;5.19;29.87;101272.25;6294256;27;96794;-67
2022/03/20 03:54:27;;;;;;;;;53.60;41.00;;;;;5.16;29.77;101272.53;6295859;27;97422;-68
2022/03/20 03:57:30;;;;;;;;;51.00;42.00;;;;;5.12;30.24;101273.78;6312425;27;96933;-68
2022/03/20 04:00:34;;;;;;;;;53.00;42.00;;;;;5.14;30.00;101277.16;6312804;27;97015;-68
2022/03/20 04:03:37;;;;;;;;;49.00;40.00;;;;;5.13;30.40;101272.78;6312862;27;97917;-67
2022/03/20 04:06:41;;;;;;;;;50.00;40.60;;;;;5.10;30.69;101274.84;6294363;27;96907;-68
2022/03/20 04:09:46;;;;;;;;;52.00;41.60;;;;;5.16;30.22;101277.88;6312823;27;97096;-68
2022/03/20 04:12:50;;;;;;;;;53.00;42.60;;;;;5.13;30.44;101267.41;6312589;27;97010;-65
2022/03/20 04:15:53;;;;;;;;;50.00;41.20;;;;;5.14;30.34;101276.28;6292764;27;97931;-65
2022/03/20 04:18:56;;;;;;;;;52.00;42.00;;;;;5.06;30.95;101274.28;6312698;27;98000;-66
2022/03/20 04:22:00;;;;;;;;;51.40;39.40;;;;;5.02;30.49;101278.19;6312992;27;96344;-68
2022/03/20 04:25:05;;;;;;;;;48.00;39.00;;;;;5.07;30.61;101291.19;6311804;27;96912;-66
2022/03/20 04:28:09;;;;;;;;;48.40;38.00;;;;;5.03;31.03;101284.38;6277187;27;98521;-65
2022/03/20 04:31:15;;;;;;;;;48.00;38.75;;;;;4.98;31.35;101294.63;6310914;27;96489;-68
2022/03/20 04:34:18;;;;;;;;;49.00;39.20;;;;;4.95;31.25;101289.50;6292913;27;96692;-68
2022/03/20 04:37:24;;;;;;;;;49.80;40.00;;;;;4.92;31.21;101293.28;6310594;27;97077;-66
2022/03/20 04:40:29;;;;;;;;;53.80;41.00;;;;;4.82;31.75;101297.69;6292077;27;96805;-67
2022/03/20 04:43:32;;;;;;;;;49.75;39.00;;;;;4.77;31.90;101299.91;6290483;27;97130;-68
2022/03/20 04:46:36;;;;;;;;;49.50;40.00;;;;;4.76;31.70;101295.53;6291953;27;96748;-67
2022/03/20 04:59:44;;;;;;;;;50.00;38.00;;;;;4.68;31.95;101311.34;6294074;27;97165;-66
2022/03/20 05:02:48;;;;;;;;;49.75;39.25;;;;;4.65;32.23;101317.78;6292312;27;97715;-68
2022/03/20 05:05:51;;;;;;;;;49.00;39.00;;;;;4.68;32.26;101320.22;6310948;27;97482;-66
2022/03/20 05:13:19;;;;;;;;;51.00;38.60;;;;;4.75;32.05;101317.88;6311333;27;97112;-68
2022/03/20 05:15:43;;;;;;;;;47.60;37.60;;;;;4.76;31.97;101332.94;6279548;27;97993;-68
2022/03/20 05:18:46;;;;;;;;;47.60;37.00;;;;;4.72;32.13;101329.69;6294768;27;99277;-66
2022/03/20 05:21:50;;;;;;;;;49.60;39.60;;;;;4.82;32.31;101332.44;6311863;27;97210;-65
2022/03/20 05:24:54;;;;;;;;;49.80;39.20;;;;;4.89;31.67;101338.97;6312529;27;97290;-68
2022/03/20 05:27:59;;;;;;;;;49.00;38.00;;;;;4.85;31.85;101324.16;6293881;27;96692;-67
2022/03/20 05:31:03;;;;;;;;;50.00;40.00;;;;;5.02;31.56;101338.84;6313288;27;97438;-67
2022/03/20 05:34:07;;;;;;;;;45.75;36.75;;;;;5.05;31.11;101338.56;6294073;27;96694;-67
2022/03/20 05:37:11;;;;;;;;;48.00;39.00;;;;;5.06;31.31;101338.44;6278314;27;96974;-66
2022/03/20 05:40:15;;;;;;;;;50.40;40.00;;;;;5.21;31.29;101337.19;6291271;27;97278;-67
2022/03/20 05:43:21;;;;;;;;;52.00;41.60;;;;;5.19;31.25;101340.94;6316298;27;97291;-67
2022/03/20 05:46:25;;;;;;;;;52.20;42.00;;;;;5.37;31.06;101347.47;6296588;27;98434;-67
2022/03/20 05:49:28;;;;;;;;;47.50;39.00;;;;;5.35;31.15;101337.84;6294495;27;96599;-67
2022/03/20 05:52:32;;;;;;;;;50.00;39.00;;;;;5.37;30.84;101312.69;6311696;27;97719;-66
2022/03/20 05:58:58;;;;;;;;;51.00;40.40;;;;;5.64;31.25;101352.28;6313997;27;97282;-68
2022/03/20 06:02:01;;;;;;;;;50.00;40.80;;;;;5.81;31.08;101353.56;6312023;27;97537;-69
2022/03/20 06:05:06;;;;;;;;;49.60;40.00;;;;;5.87;31.16;101356.56;6287724;27;97024;-65
2022/03/20 06:08:09;;;;;;;;;49.25;39.25;;;;;6.05;30.67;101355.00;6312434;27;97051;-65
2022/03/20 06:11:13;;;;;;;;;50.00;40.00;;;;;6.24;30.67;101359.59;6292013;27;97775;-67
2022/03/20 06:14:18;;;;;;;;;53.00;42.00;;;;;6.42;30.61;101370.53;6292463;27;97257;-67
2022/03/20 06:17:21;;;;;;;;;48.75;40.00;;;;;6.54;30.23;101369.47;6312576;27;96708;-67
2022/03/20 06:20:28;;;;;;;;;53.00;42.00;;;;;6.68;30.09;101369.09;6286910;27;97206;-67
2022/03/20 06:23:31;;;;;;;;;49.00;40.00;;;;;6.85;30.17;101372.94;6313460;27;96740;-66
2022/03/20 06:26:35;;;;;;;;;49.50;41.00;;;;;7.10;29.45;101375.09;6292880;27;97932;-68
2022/03/20 06:29:40;;;;;;;;;51.60;42.00;;;;;7.29;29.14;101376.97;6294298;27;97017;-68
2022/03/20 06:32:45;;;;;;;;;53.00;41.00;;;;;7.56;28.71;101378.97;6310798;27;96637;-65
2022/03/20 06:35:48;;;;;;;;;50.20;41.20;;;;;7.78;28.71;101373.28;6280951;27;97361;-66
2022/03/20 06:38:52;;;;;;;;;53.00;42.00;;;;;8.09;28.36;101382.00;6312223;27;96584;-67
2022/03/20 06:41:55;;;;;;;;;55.00;42.00;;;;;8.25;27.77;101377.72;6312887;27;97950;-67
2022/03/20 06:45:01;;;;;;;;;52.80;42.00;;;;;8.40;27.77;101391.56;6253315;27;97963;-65
2022/03/20 06:48:06;;;;;;;;;55.00;43.40;;;;;8.55;27.54;101395.47;6294157;27;97026;-66
2022/03/20 06:51:09;;;;;;;;;53.00;41.00;;;;;8.65;27.28;101407.03;6266979;27;96819;-69
2022/03/20 06:54:13;;;;;;;;;53.00;44.00;;;;;8.84;27.23;101406.09;6312201;27;97509;-67
2022/03/20 06:57:20;;;;;;;;;54.20;43.40;;;;;9.18;27.21;101409.03;6313629;27;96550;-66
2022/03/20 07:00:25;;;;;;;;;57.33;44.00;;;;;9.60;26.59;101411.97;6313904;27;96669;-68
2022/03/20 07:03:33;;;;;;;;;50.60;41.00;;;;;10.02;26.25;101417.53;6269851;27;98539;-67
2022/03/20 07:06:37;;;;;;;;;54.00;42.40;;;;;10.34;25.53;101416.97;6288890;27;97467;-68
2022/03/20 07:09:40;;;;;;;;;55.00;44.00;;;;;10.82;25.29;101417.25;6309108;27;97478;-67
2022/03/20 07:12:43;;;;;;;;;50.60;41.20;;;;;11.23;24.50;101423.66;6293822;27;99474;-67
2022/03/20 07:15:50;;;;;;;;;50.80;41.00;;;;;11.84;24.13;101424.28;6313896;27;97095;-67
2022/03/20 07:18:55;;;;;;;;;54.60;42.00;;;;;12.39;23.46;101422.56;6313487;27;98557;-68
2022/03/20 07:21:58;;;;;;;;;53.60;43.00;;;;;12.53;22.43;101427.28;6313680;27;97446;-66
2022/03/20 07:29:29;;;;;;;;;55.00;43.00;;;;;12.98;22.60;101428.47;6283390;27;97424;-67
2022/03/20 07:31:49;;;;;;;;;55.60;43.00;;;;;13.54;21.56;101434.63;6313357;27;96546;-65
2022/03/20 07:34:53;;;;;;;;;54.60;43.00;;;;;13.81;21.49;101434.13;6312892;27;97442;-67
2022/03/20 07:37:57;;;;;;;;;49.60;40.60;;;;;14.42;21.00;101433.09;6310639;27;97184;-66
2022/03/20 07:41:01;;;;;;;;;52.20;41.40;;;;;14.76;20.38;101432.56;6275817;27;96929;-66
2022/03/20 07:44:04;;;;;;;;;53.00;41.75;;;;;15.36;20.07;101436.91;6293789;27;97146;-68
2022/03/20 07:47:17;;;;;;;;;50.00;40.60;;;;;15.52;19.50;101432.13;6311257;27;96583;-67
2022/03/20 07:50:21;;;;;;;;;53.40;41.00;;;;;15.58;19.33;101435.97;6309239;27;96668;-68
2022/03/20 07:53:26;;;;;;;;;49.40;39.40;;;;;15.76;19.26;101435.50;6311326;27;97189;-71
2022/03/20 07:56:34;;;;;;;;;50.00;41.00;;;;;15.99;19.17;101441.59;6310606;27;98172;-68
2022/03/20 07:59:38;;;;;;;;;55.60;41.00;;;;;16.30;18.90;101443.97;6305443;27;97312;-68
2022/03/20 08:02:42;;;;;;;;;51.75;41.00;;;;;16.69;18.82;101444.31;6303575;27;97429;-70
2022/03/20 08:05:46;;;;;;;;;50.40;40.40;;;;;17.20;18.62;101439.31;6307211;27;96781;-68
2022/03/20 08:08:50;;;;;;;;;50.75;41.00;;;;;17.94;18.03;101441.25;6287841;27;97578;-70
2022/03/20 08:11:53;;;;;;;;;49.40;40.00;;;;;18.30;17.27;101440.88;6290522;27;100346;-68
2022/03/20 08:14:57;;;;;;;;;49.00;40.00;;;;;18.93;16.99;101440.16;6308279;27;96713;-67
2022/03/20 08:18:02;;;;;;;;;49.00;39.67;;;;;19.29;16.23;101438.78;6309848;27;96946;-69
2022/03/20 08:21:11;;;;;;;;;49.80;40.00;;;;;19.26;15.49;101436.47;6281116;27;97057;-67
2022/03/20 08:24:15;;;;;;;;;49.00;39.00;;;;;18.97;16.14;101426.91;6309470;27;97269;-67
2022/03/20 08:27:20;;;;;;;;;50.80;40.40;;;;;19.21;16.18;101439.00;6290401;27;97503;-67
2022/03/20 08:30:24;;;;;;;;;48.00;38.00;;;;;19.62;15.72;101428.56;6274239;27;98787;-69
2022/03/20 08:33:28;;;;;;;;;48.00;39.80;;;;;20.28;15.61;101425.34;6309265;27;96731;-68
2022/03/20 08:36:32;;;;;;;;;50.60;39.00;;;;;20.67;14.81;101424.97;6312888;27;97015;-67
2022/03/20 08:39:35;;;;;;;;;52.00;39.67;;;;;21.04;15.04;101422.28;6267342;27;98376;-67
2022/03/20 08:42:38;;;;;;;;;50.40;40.80;;;;;21.45;14.36;101411.41;6310210;27;97630;-69
2022/03/20 08:45:42;;;;;;;;;49.00;39.80;;;;;21.73;14.10;101418.22;6292189;27;98298;-69
2022/03/20 08:48:47;;;;;;;;;48.00;40.00;;;;;21.88;14.36;101413.13;6293439;27;97068;-69
2022/03/20 08:51:50;;;;;;;;;49.80;40.00;;;;;22.35;13.70;101414.06;6316227;27;97088;-67
2022/03/20 08:54:53;;;;;;;;;49.60;39.80;;;;;22.30;13.89;101416.69;6315572;27;97063;-68
2022/03/20 08:57:56;;;;;;;;;50.00;40.00;;;;;22.16;13.51;101410.59;6298312;27;96678;-70
2022/03/20 09:01:00;;;;;;;;;47.00;38.00;;;;;21.53;14.17;101402.88;6315483;27;96474;-70
2022/03/20 09:04:06;;;;;;;;;49.50;39.00;;;;;21.74;13.90;101407.00;6315209;27;96961;-71
2022/03/20 09:07:09;;;;;;;;;50.50;40.00;;;;;22.01;14.24;101399.22;6315922;27;97203;-70
2022/03/20 09:10:15;;;;;;;;;51.25;39.25;;;;;22.48;14.15;101399.28;6292788;27;97304;-70
2022/03/20 09:13:18;;;;;;;;;49.00;40.60;;;;;23.02;13.31;101390.59;6315610;27;97276;-68
2022/03/20 09:19:43;;;;;;;;;48.20;39.00;;;;;24.19;12.59;101384.59;6294127;27;98412;-71
2022/03/20 09:22:47;;;;;;;;;48.00;39.00;;;;;24.47;12.68;101378.97;6312427;27;96558;-68
2022/03/20 09:25:52;;;;;;;;;45.40;37.00;;;;;24.74;12.35;101377.13;6310743;27;98045;-70
2022/03/20 09:28:55;;;;;;;;;46.00;38.25;;;;;25.04;11.70;101357.41;6313988;27;97504;-70
2022/03/20 09:31:59;;;;;;;;;46.80;38.00;;;;;24.75;12.09;101375.22;6310146;27;96798;-71
2022/03/20 09:35:04;;;;;;;;;47.20;38.00;;;;;24.74;11.80;101377.13;6294454;27;100225;-68
2022/03/20 09:38:08;;;;;;;;;47.00;39.00;;;;;24.99;11.59;101373.91;6311505;27;98799;-68
2022/03/20 09:41:12;;;;;;;;;42.40;35.40;;;;;25.31;12.08;101374.88;6295228;27;96748;-69
2022/03/20 09:44:17;;;;;;;;;45.25;35.00;;;;;25.28;11.31;101380.06;6293675;27;100014;-70
2022/03/20 09:47:23;;;;;;;;;41.80;36.40;;;;;25.20;11.62;101375.84;6312756;27;97348;-70
2022/03/20 09:50:28;;;;;;;;;48.33;38.67;;;;;25.52;11.76;101378.66;6274316;27;98220;-69
2022/03/20 09:53:32;;;;;;;;;46.00;38.00;;;;;25.93;11.52;101379.09;6308631;27;97434;-69
2022/03/20 09:56:37;;;;;;;;;44.40;36.00;;;;;26.15;11.22;101372.38;6292305;27;96680;-68
2022/03/20 09:59:41;;;;;;;;;44.00;35.00;;;;;26.35;11.43;101374.47;6310500;27;96845;-67
2022/03/20 10:02:44;;;;;;;;;41.25;33.00;;;;;26.08;10.66;101348.81;6312730;27;96610;-70
2022/03/20 10:06:15;;;;;;;;;41.50;35.00;;;;;26.18;10.94;101374.63;6290862;27;98503;-69
2022/03/20 10:09:18;;;;;;;;;39.60;33.00;;;;;25.59;11.13;101372.97;6291079;27;98283;-69
2022/03/20 10:12:31;;;;;;;;;40.00;33.00;;;;;25.29;11.07;101374.28;6273033;27;98576;-70
2022/03/20 10:15:36;;;;;;;;;38.00;33.00;;;;;25.36;11.37;101376.84;6314022;27;98802;-69
2022/03/20 10:18:40;;;;;;;;;35.00;32.00;;;;;24.55;11.42;101365.56;6294157;27;97298;-68
2022/03/20 10:21:47;;;;;;;;;37.60;32.00;;;;;24.03;11.84;101370.53;6313752;27;97040;-67
2022/03/20 10:24:52;;;;;;;;;37.60;32.40;;;;;24.54;12.21;101360.28;6314950;27;97011;-69
2022/03/20 10:27:58;;;;;;;;;36.00;32.00;;;;;24.99;11.68;101360.13;6275942;27;98086;-70
2022/03/20 10:31:03;;;;;;;;;36.00;30.00;;;;;24.46;11.24;101353.31;6311339;27;96812;-69
2022/03/20 10:34:07;;;;;;;;;35.40;30.00;;;;;24.67;11.35;101359.97;6287787;27;96547;-70
2022/03/20 10:37:12;;;;;;;;;32.50;28.75;;;;;24.51;11.16;101353.38;6311435;27;97671;-70
2022/03/20 10:40:17;;;;;;;;;32.50;29.00;;;;;24.17;11.68;101347.09;6293153;27;98470;-70
2022/03/20 10:43:20;;;;;;;;;35.50;31.50;;;;;24.67;11.62;101348.09;6313983;27;97548;-70
2022/03/20 10:46:26;;;;;;;;;30.00;26.00;;;;;24.74;11.01;101332.16;6311740;27;97068;-70
2022/03/20 10:49:29;;;;;;;;;31.00;28.00;;;;;24.65;11.37;101336.47;6291871;27;99850;-70
2022/03/20 10:52:36;;;;;;;;;27.40;25.60;;;;;24.54;11.17;101330.78;6306058;27;96879;-70
2022/03/20 10:55:41;;;;;;;;;27.00;25.00;;;;;24.78;11.37;101327.78;6299650;27;97111;-69
2022/03/20 10:58:45;;;;;;;;;25.00;24.00;;;;;24.83;11.18;101327.84;6311559;27;98124;-69
2022/03/20 11:01:48;;;;;;;;;25.40;22.40;;;;;24.54;10.58;101327.19;6289531;27;99880;-70
2022/03/20 11:04:53;;;;;;;;;24.00;23.00;;;;;23.77;11.06;101327.09;6291742;27;96725;-70
2022/03/20 11:07:57;;;;;;;;;23.50;22.00;;;;;23.71;11.49;101311.56;6309070;27;97012;-69
2022/03/20 11:11:02;;;;;;;;;29.20;25.60;;;;;24.09;11.03;101294.28;6311277;27;97907;-70
2022/03/20 11:14:09;;;;;;;;;24.00;20.00;;;;;24.38;10.55;101311.56;6293484;27;97550;-70
2022/03/20 11:17:17;;;;;;;;;24.00;19.00;;;;;24.15;10.89;101288.56;6285624;27;99612;-70
2022/03/20 11:20:24;;;;;;;;;25.00;22.40;;;;;24.10;10.98;101282.97;6309662;27;96697;-68
2022/03/20 11:23:31;;;;;;;;;24.00;21.20;;;;;24.30;10.97;101288.00;6307377;27;97567;-69
2022/03/20 11:26:40;;;;;;;;;20.00;19.00;;;;;24.64;10.37;101283.19;6310731;27;97532;-69
2022/03/20 11:29:48;;;;;;;;;23.50;18.75;;;;;24.50;10.06;101255.19;6291285;27;97783;-71
2022/03/20 11:32:52;;;;;;;;;19.00;18.00;;;;;24.45;10.18;101273.56;6304037;27;98202;-70
2022/03/20 11:35:55;;;;;;;;;21.00;20.40;;;;;24.85;10.20;101270.50;6310259;27;96626;-71
2022/03/20 11:39:15;;;;;;;;;23.00;20.00;;;;;25.00;10.57;101254.16;6289908;27;99909;-67
2022/03/20 11:42:24;;;;;;;;;19.00;16.00;;;;;24.15;9.94;101263.75;6309984;27;96573;-67
2022/03/20 11:45:27;;;;;;;;;18.00;16.00;;;;;23.80;10.45;101254.94;6311794;27;96607;-68
2022/03/20 11:48:30;;;;;;;;;19.50;18.50;;;;;23.85;10.52;101249.53;6313078;27;97510;-67
2022/03/20 11:51:53;;;;;;;;;18.00;16.80;;;;;23.22;10.00;101258.06;6293644;27;97077;-66
2022/03/20 11:54:59;;;;;;;;;16.00;15.40;;;;;23.01;10.48;101259.63;6293983;27;97395;-68
2022/03/20 11:58:06;;;;;;;;;22.00;20.25;;;;;22.54;10.88;101258.91;6293513;27;97643;-68
2022/03/20 12:01:12;;;;;;;;;17.20;17.00;;;;;22.60;10.52;101252.44;6313011;27;96570;-68
2022/03/20 12:04:21;;;;;;;;;17.60;14.00;;;;;22.38;10.34;101245.94;6304297;27;97419;-67
2022/03/20 12:07:33;;;;;;;;;18.00;15.60;;;;;22.49;10.81;101242.31;6277343;27;98030;-67
2022/03/20 12:10:51;;;;;;;;;16.00;16.00;;;;;22.67;11.17;101242.16;6312023;27;97492;-67
2022/03/20 12:14:06;;;;;;;;;19.00;17.20;;;;;22.24;10.62;101239.84;6313463;27;96491;-67
2022/03/20 12:17:10;;;;;;;;;15.00;14.40;;;;;22.39;10.59;101231.94;6294916;27;97115;-66
2022/03/20 12:20:14;;;;;;;;;22.40;20.00;;;;;22.36;10.97;101243.41;6277732;27;97045;-67
2022/03/20 12:23:50;;;;;;;;;21.40;19.40;;;;;22.27;11.53;101228.38;6312234;27;97797;-65
2022/03/20 12:26:56;;;;;;;;;18.00;15.33;;;;;22.15;10.53;101238.53;6233700;28;96690;-66
2022/03/20 12:30:02;;;;;;;;;19.00;19.00;;;;;22.17;11.22;101227.31;6182504;28;97297;-66
2022/03/20 12:33:23;;;;;;;;;19.00;18.60;;;;;22.46;10.88;101215.31;6226792;28;97729;-66
2022/03/20 12:36:30;;;;;;;;;18.50;18.00;;;;;23.01;10.41;101223.03;6209173;28;97429;-67
2022/03/20 12:39:49;;;;;;;;;18.00;18.00;;;;;23.12;10.37;101217.44;6208256;28;96628;-66
2022/03/20 12:43:00;;;;;;;;;19.75;17.00;;;;;23.05;10.70;101218.69;6209163;28;96704;-66
2022/03/20 12:46:03;;;;;;;;;18.00;18.00;;;;;22.45;10.59;101224.63;6208500;28;97021;-68
2022/03/20 12:49:16;;;;;;;;;17.25;17.00;;;;;21.88;10.96;101205.22;6208719;28;97460;-66
2022/03/20 12:52:21;;;;;;;;;16.00;15.00;;;;;21.75;11.04;101210.09;6192340;28;96706;-69
2022/03/20 12:55:28;;;;;;;;;15.00;14.00;;;;;21.69;10.57;101202.84;6207714;28;96721;-66
2022/03/20 12:58:33;;;;;;;;;15.00;14.00;;;;;21.23;10.64;101201.72;6272275;27;96452;-67
2022/03/20 13:01:41;;;;;;;;;17.00;14.00;;;;;21.10;10.85;101204.66;6287526;27;97414;-66
2022/03/20 13:04:48;;;;;;;;;16.00;15.00;;;;;21.06;11.45;101200.69;6286061;27;96823;-66
2022/03/20 13:07:53;;;;;;;;;17.00;15.00;;;;;21.03;11.68;101201.16;6287328;27;97042;-65
2022/03/20 13:10:59;;;;;;;;;15.40;15.00;;;;;20.68;11.15;101190.91;6276013;27;97473;-66
2022/03/20 13:14:12;;;;;;;;;12.00;12.00;;;;;20.60;10.98;101191.22;6311320;27;97860;-66
2022/03/20 13:17:25;;;;;;;;;16.00;14.00;;;;;20.83;11.61;101182.25;6312390;27;96460;-68
2022/03/20 13:20:30;;;;;;;;;14.20;14.00;;;;;21.03;11.40;101181.94;6312276;27;96626;-67
2022/03/20 13:23:35;;;;;;;;;16.00;14.00;;;;;20.56;10.97;101184.53;6312566;27;96543;-67
2022/03/20 13:26:39;;;;;;;;;12.00;12.00;;;;;20.33;11.29;101171.53;6312459;27;96373;-66
2022/03/20 13:29:56;;;;;;;;;13.40;12.60;;;;;20.25;11.25;101165.53;6293387;27;99724;-66
2022/03/20 13:33:01;;;;;;;;;15.00;13.00;;;;;20.25;11.16;101180.06;6312360;27;96641;-66
2022/03/20 13:36:08;;;;;;;;;12.00;11.60;;;;;20.00;10.66;101178.47;6314187;27;96430;-65
2022/03/20 13:39:12;;;;;;;;;13.00;12.00;;;;;20.05;11.25;101173.13;6315951;27;96580;-67
2022/03/20 13:42:18;;;;;;;;;13.00;12.00;;;;;19.69;11.63;101157.53;6298105;27;97457;-69
2022/03/20 13:45:25;;;;;;;;;13.00;12.00;;;;;19.57;11.40;101170.28;6316968;27;96539;-68
2022/03/20 13:48:30;;;;;;;;;15.50;13.50;;;;;19.34;12.05;101174.47;6297573;27;97413;-69
2022/03/20 13:51:35;;;;;;;;;16.00;15.00;;;;;19.02;11.88;101173.66;6313389;27;97402;-68
2022/03/20 13:54:40;;;;;;;;;12.40;12.40;;;;;19.10;12.08;101161.63;6261140;27;98410;-67
2022/03/20 13:57:52;;;;;;;;;16.00;12.25;;;;;18.47;11.68;101167.03;6300960;27;96644;-67
2022/03/20 14:01:02;;;;;;;;;13.40;11.00;;;;;18.65;11.94;101171.81;6304539;27;96598;-66
2022/03/20 14:04:13;;;;;;;;;12.00;11.00;;;;;18.34;10.87;101174.44;6306423;27;97390;-64
2022/03/20 14:07:19;;;;;;;;;10.00;9.00;;;;;18.53;11.33;101168.06;6300466;27;97481;-65
2022/03/20 14:10:23;;;;;;;;;12.00;10.75;;;;;18.18;11.60;101148.47;6310360;27;97396;-64
2022/03/20 14:13:29;;;;;;;;;12.40;11.00;;;;;18.70;12.11;101139.19;6276356;27;97213;-64
2022/03/20 14:16:34;;;;;;;;;11.00;11.00;;;;;18.82;11.58;101166.66;6309600;27;97475;-63
2022/03/20 14:19:45;;;;;;;;;11.00;11.00;;;;;19.08;12.01;101163.72;6278637;27;99467;-63
2022/03/20 14:22:53;;;;;;;;;11.00;9.40;;;;;19.09;11.21;101149.00;6286671;27;97152;-62
2022/03/20 14:25:56;;;;;;;;;12.60;11.00;;;;;19.52;11.93;101150.97;6307728;27;97572;-64
2022/03/20 14:39:43;;;;;;;;;12.00;11.00;;;;;19.36;11.98;101124.97;6285856;27;96564;-69
2022/03/20 14:42:47;;;;;;;;;11.80;11.00;;;;;19.15;11.87;101142.66;6283124;27;96833;-69
2022/03/20 14:45:51;;;;;;;;;10.00;9.00;;;;;19.22;11.77;101127.00;6308575;27;97273;-72